KOCF/OCF METAR and TAF weather

Enter ICAO airport designator
Station Type Date Time Source
KOCF METAR 2019/12/06 01:51 UTC NOAA

KOCF 060151Z AUTO 00000KT 10SM CLR 08/04 A3019 RMK AO2 SLP226 T00830039 $


Station Type Date Time Source
KOCF Decoded METAR 2019/12/06 01:51 UTC NOAA

Ocala, Ocala International Airport-Jim Taylor Field, FL, United States (KOCF) 29-10N 082-13W
Dec 05, 2019 - 08:51 PM EST / 2019.12.06 0151 UTC
Wind: Calm:0
Visibility: 10 mile(s):0
Sky conditions: clear
Temperature: 46.9 F (8.3 C)
Dew Point: 39.0 F (3.9 C)
Relative Humidity: 73%
Pressure (altimeter): 30.19 in. Hg (1022 hPa)
ob: KOCF 060151Z AUTO 00000KT 10SM CLR 08/04 A3019 RMK AO2 SLP226 T00830039
cycle: 2

Station Type Date Time Source
KOCF TAF UTC NOAA

Error!

Example: see airport list